sensor_id;sensor_type;location;lat;lon;timestamp;P1;durP1;ratioP1;P2;durP2;ratioP2
70320;SDS011;61127;55.826;37.046;2023-02-15T00:00:22;3.03;;;0.50;;
70320;SDS011;61127;55.826;37.046;2023-02-15T00:02:49;5.80;;;0.50;;
70320;SDS011;61127;55.826;37.046;2023-02-15T00:05:25;5.57;;;0.50;;
70320;SDS011;61127;55.826;37.046;2023-02-15T00:07:51;4.17;;;0.50;;
70320;SDS011;61127;55.826;37.046;2023-02-15T00:10:17;1.30;;;0.32;;
70320;SDS011;61127;55.826;37.046;2023-02-15T00:12:43;2.90;;;0.50;;
70320;SDS011;61127;55.826;37.046;2023-02-15T00:15:10;2.67;;;0.40;;
70320;SDS011;61127;55.826;37.046;2023-02-15T00:17:37;2.33;;;0.52;;
70320;SDS011;61127;55.826;37.046;2023-02-15T00:20:03;2.10;;;0.40;;
70320;SDS011;61127;55.826;37.046;2023-02-15T00:22:29;5.25;;;0.70;;
70320;SDS011;61127;55.826;37.046;2023-02-15T00:24:58;2.77;;;0.37;;
70320;SDS011;61127;55.826;37.046;2023-02-15T00:27:23;3.90;;;0.50;;
70320;SDS011;61127;55.826;37.046;2023-02-15T00:29:49;4.83;;;0.40;;
70320;SDS011;61127;55.826;37.046;2023-02-15T00:32:15;1.67;;;0.55;;
70320;SDS011;61127;55.826;37.046;2023-02-15T00:34:41;1.90;;;0.30;;
70320;SDS011;61127;55.826;37.046;2023-02-15T00:37:07;1.35;;;0.40;;
70320;SDS011;61127;55.826;37.046;2023-02-15T00:39:32;3.20;;;0.87;;
70320;SDS011;61127;55.826;37.046;2023-02-15T00:41:58;2.28;;;0.50;;
70320;SDS011;61127;55.826;37.046;2023-02-15T00:44:35;4.03;;;0.67;;
70320;SDS011;61127;55.826;37.046;2023-02-15T00:47:01;2.85;;;0.63;;
70320;SDS011;61127;55.826;37.046;2023-02-15T00:49:27;3.93;;;0.50;;
70320;SDS011;61127;55.826;37.046;2023-02-15T00:51:53;2.28;;;0.40;;
70320;SDS011;61127;55.826;37.046;2023-02-15T00:54:19;1.77;;;0.50;;
70320;SDS011;61127;55.826;37.046;2023-02-15T00:56:45;3.78;;;0.82;;
70320;SDS011;61127;55.826;37.046;2023-02-15T00:59:11;4.93;;;0.50;;
70320;SDS011;61127;55.826;37.046;2023-02-15T01:01:36;2.42;;;0.50;;
70320;SDS011;61127;55.826;37.046;2023-02-15T01:04:02;5.63;;;0.63;;
70320;SDS011;61127;55.826;37.046;2023-02-15T01:06:29;3.33;;;0.55;;
70320;SDS011;61127;55.826;37.046;2023-02-15T01:08:55;3.53;;;0.60;;
70320;SDS011;61127;55.826;37.046;2023-02-15T01:11:21;2.40;;;0.40;;
70320;SDS011;61127;55.826;37.046;2023-02-15T01:13:50;1.15;;;0.40;;
70320;SDS011;61127;55.826;37.046;2023-02-15T01:16:17;5.68;;;0.60;;
70320;SDS011;61127;55.826;37.046;2023-02-15T01:18:43;3.10;;;0.40;;
70320;SDS011;61127;55.826;37.046;2023-02-15T01:21:12;1.63;;;0.40;;
70320;SDS011;61127;55.826;37.046;2023-02-15T01:23:39;2.75;;;0.63;;
70320;SDS011;61127;55.826;37.046;2023-02-15T01:26:05;4.63;;;0.60;;
70320;SDS011;61127;55.826;37.046;2023-02-15T01:28:30;2.55;;;0.60;;
70320;SDS011;61127;55.826;37.046;2023-02-15T01:30:56;4.68;;;0.55;;
70320;SDS011;61127;55.826;37.046;2023-02-15T01:33:22;3.20;;;0.63;;
70320;SDS011;61127;55.826;37.046;2023-02-15T01:35:48;3.33;;;0.50;;
70320;SDS011;61127;55.826;37.046;2023-02-15T01:38:15;2.13;;;0.50;;
70320;SDS011;61127;55.826;37.046;2023-02-15T01:40:41;3.13;;;0.50;;
70320;SDS011;61127;55.826;37.046;2023-02-15T01:43:10;2.65;;;0.40;;
70320;SDS011;61127;55.826;37.046;2023-02-15T01:45:37;3.72;;;1.05;;
70320;SDS011;61127;55.826;37.046;2023-02-15T01:48:04;1.95;;;0.60;;
70320;SDS011;61127;55.826;37.046;2023-02-15T01:50:40;1.05;;;0.40;;
70320;SDS011;61127;55.826;37.046;2023-02-15T01:53:18;3.13;;;0.40;;
70320;SDS011;61127;55.826;37.046;2023-02-15T01:55:47;3.85;;;0.45;;
70320;SDS011;61127;55.826;37.046;2023-02-15T01:58:14;2.75;;;0.43;;
70320;SDS011;61127;55.826;37.046;2023-02-15T02:00:40;4.13;;;0.70;;
70320;SDS011;61127;55.826;37.046;2023-02-15T02:03:36;3.30;;;0.40;;
70320;SDS011;61127;55.826;37.046;2023-02-15T02:06:06;2.45;;;0.52;;
70320;SDS011;61127;55.826;37.046;2023-02-15T02:08:31;3.60;;;0.60;;
70320;SDS011;61127;55.826;37.046;2023-02-15T02:10:57;2.20;;;0.30;;
70320;SDS011;61127;55.826;37.046;2023-02-15T02:13:23;5.65;;;0.60;;
70320;SDS011;61127;55.826;37.046;2023-02-15T02:37:33;4.10;;;0.68;;
70320;SDS011;61127;55.826;37.046;2023-02-15T02:47:48;3.83;;;0.40;;
70320;SDS011;61127;55.826;37.046;2023-02-15T02:50:17;1.35;;;0.55;;
70320;SDS011;61127;55.826;37.046;2023-02-15T02:57:57;1.35;;;0.50;;
70320;SDS011;61127;55.826;37.046;2023-02-15T03:00:24;2.80;;;0.50;;
70320;SDS011;61127;55.826;37.046;2023-02-15T03:02:53;3.17;;;0.55;;
70320;SDS011;61127;55.826;37.046;2023-02-15T03:05:21;3.28;;;0.75;;
70320;SDS011;61127;55.826;37.046;2023-02-15T03:07:49;4.57;;;0.73;;
70320;SDS011;61127;55.826;37.046;2023-02-15T03:10:16;1.55;;;0.40;;
70320;SDS011;61127;55.826;37.046;2023-02-15T03:12:43;4.43;;;0.73;;
70320;SDS011;61127;55.826;37.046;2023-02-15T03:17:37;5.90;;;0.60;;
70320;SDS011;61127;55.826;37.046;2023-02-15T03:20:09;2.70;;;0.63;;
70320;SDS011;61127;55.826;37.046;2023-02-15T03:22:41;3.22;;;0.50;;
70320;SDS011;61127;55.826;37.046;2023-02-15T03:25:13;6.00;;;0.73;;
70320;SDS011;61127;55.826;37.046;2023-02-15T03:27:42;4.05;;;0.70;;
70320;SDS011;61127;55.826;37.046;2023-02-15T03:30:09;4.15;;;0.63;;
70320;SDS011;61127;55.826;37.046;2023-02-15T03:32:36;2.63;;;0.60;;
70320;SDS011;61127;55.826;37.046;2023-02-15T03:35:03;3.25;;;0.80;;
70320;SDS011;61127;55.826;37.046;2023-02-15T03:37:32;3.50;;;0.85;;
70320;SDS011;61127;55.826;37.046;2023-02-15T03:40:01;1.60;;;0.40;;
70320;SDS011;61127;55.826;37.046;2023-02-15T03:42:54;2.83;;;0.70;;
70320;SDS011;61127;55.826;37.046;2023-02-15T03:45:22;1.30;;;0.60;;
70320;SDS011;61127;55.826;37.046;2023-02-15T03:47:49;1.48;;;0.43;;
70320;SDS011;61127;55.826;37.046;2023-02-15T03:50:24;3.88;;;0.80;;
70320;SDS011;61127;55.826;37.046;2023-02-15T03:53:10;4.38;;;0.60;;
70320;SDS011;61127;55.826;37.046;2023-02-15T03:55:38;3.63;;;0.63;;
70320;SDS011;61127;55.826;37.046;2023-02-15T03:58:03;3.13;;;0.80;;
70320;SDS011;61127;55.826;37.046;2023-02-15T04:00:58;2.83;;;0.60;;
70320;SDS011;61127;55.826;37.046;2023-02-15T04:03:44;2.55;;;0.90;;
70320;SDS011;61127;55.826;37.046;2023-02-15T04:06:11;8.95;;;1.20;;
70320;SDS011;61127;55.826;37.046;2023-02-15T04:08:37;1.35;;;0.57;;
70320;SDS011;61127;55.826;37.046;2023-02-15T04:11:22;5.00;;;0.90;;
70320;SDS011;61127;55.826;37.046;2023-02-15T04:13:49;7.32;;;0.80;;
70320;SDS011;61127;55.826;37.046;2023-02-15T04:18:54;6.57;;;1.45;;
70320;SDS011;61127;55.826;37.046;2023-02-15T04:21:38;10.93;;;0.98;;
70320;SDS011;61127;55.826;37.046;2023-02-15T04:24:22;4.30;;;0.60;;
70320;SDS011;61127;55.826;37.046;2023-02-15T04:27:06;3.58;;;0.75;;
70320;SDS011;61127;55.826;37.046;2023-02-15T04:29:32;5.68;;;1.05;;
70320;SDS011;61127;55.826;37.046;2023-02-15T04:31:59;5.93;;;0.70;;
70320;SDS011;61127;55.826;37.046;2023-02-15T04:34:27;3.00;;;0.68;;
70320;SDS011;61127;55.826;37.046;2023-02-15T04:36:52;1.37;;;0.50;;
70320;SDS011;61127;55.826;37.046;2023-02-15T04:39:18;1.92;;;0.88;;
70320;SDS011;61127;55.826;37.046;2023-02-15T04:41:43;3.47;;;0.70;;
70320;SDS011;61127;55.826;37.046;2023-02-15T04:44:09;3.83;;;0.82;;
70320;SDS011;61127;55.826;37.046;2023-02-15T04:46:38;2.15;;;0.90;;
70320;SDS011;61127;55.826;37.046;2023-02-15T04:49:03;4.57;;;0.73;;
70320;SDS011;61127;55.826;37.046;2023-02-15T04:51:29;4.45;;;0.90;;
70320;SDS011;61127;55.826;37.046;2023-02-15T04:53:54;4.43;;;0.80;;
70320;SDS011;61127;55.826;37.046;2023-02-15T04:56:21;3.63;;;0.85;;
70320;SDS011;61127;55.826;37.046;2023-02-15T04:58:46;1.80;;;0.67;;
70320;SDS011;61127;55.826;37.046;2023-02-15T05:01:12;6.57;;;1.02;;
70320;SDS011;61127;55.826;37.046;2023-02-15T05:03:38;6.17;;;1.10;;
70320;SDS011;61127;55.826;37.046;2023-02-15T05:06:05;2.80;;;0.82;;
70320;SDS011;61127;55.826;37.046;2023-02-15T05:08:30;4.57;;;0.88;;
70320;SDS011;61127;55.826;37.046;2023-02-15T05:10:56;7.07;;;0.70;;
70320;SDS011;61127;55.826;37.046;2023-02-15T05:13:22;4.97;;;0.98;;
70320;SDS011;61127;55.826;37.046;2023-02-15T05:15:49;3.77;;;0.70;;
70320;SDS011;61127;55.826;37.046;2023-02-15T05:18:15;2.85;;;0.85;;
70320;SDS011;61127;55.826;37.046;2023-02-15T05:20:41;3.22;;;1.10;;
70320;SDS011;61127;55.826;37.046;2023-02-15T05:23:06;5.40;;;0.77;;
70320;SDS011;61127;55.826;37.046;2023-02-15T05:25:33;4.95;;;1.17;;
70320;SDS011;61127;55.826;37.046;2023-02-15T05:28:17;1.27;;;0.80;;
70320;SDS011;61127;55.826;37.046;2023-02-15T05:30:46;2.90;;;0.70;;
70320;SDS011;61127;55.826;37.046;2023-02-15T05:33:12;3.35;;;0.80;;
70320;SDS011;61127;55.826;37.046;2023-02-15T05:35:37;6.27;;;1.20;;
70320;SDS011;61127;55.826;37.046;2023-02-15T05:38:03;3.17;;;0.80;;
70320;SDS011;61127;55.826;37.046;2023-02-15T05:40:29;5.23;;;1.30;;
70320;SDS011;61127;55.826;37.046;2023-02-15T05:42:55;3.22;;;0.90;;
70320;SDS011;61127;55.826;37.046;2023-02-15T05:45:22;4.57;;;1.00;;
70320;SDS011;61127;55.826;37.046;2023-02-15T05:47:47;3.97;;;0.90;;
70320;SDS011;61127;55.826;37.046;2023-02-15T05:50:13;5.78;;;0.82;;
70320;SDS011;61127;55.826;37.046;2023-02-15T05:52:39;3.53;;;1.02;;
70320;SDS011;61127;55.826;37.046;2023-02-15T05:55:05;4.67;;;1.00;;
70320;SDS011;61127;55.826;37.046;2023-02-15T05:57:31;4.45;;;0.93;;
70320;SDS011;61127;55.826;37.046;2023-02-15T05:59:56;5.27;;;1.07;;
70320;SDS011;61127;55.826;37.046;2023-02-15T06:02:22;2.97;;;0.98;;
70320;SDS011;61127;55.826;37.046;2023-02-15T06:04:48;5.63;;;1.30;;
70320;SDS011;61127;55.826;37.046;2023-02-15T06:07:14;5.53;;;1.45;;
70320;SDS011;61127;55.826;37.046;2023-02-15T06:09:39;4.77;;;1.27;;
70320;SDS011;61127;55.826;37.046;2023-02-15T06:12:05;5.78;;;1.30;;
70320;SDS011;61127;55.826;37.046;2023-02-15T06:17:01;6.10;;;1.20;;
70320;SDS011;61127;55.826;37.046;2023-02-15T06:19:26;4.13;;;1.40;;
70320;SDS011;61127;55.826;37.046;2023-02-15T06:21:52;3.35;;;1.15;;
70320;SDS011;61127;55.826;37.046;2023-02-15T06:24:18;3.40;;;1.30;;
70320;SDS011;61127;55.826;37.046;2023-02-15T06:26:43;5.30;;;1.40;;
70320;SDS011;61127;55.826;37.046;2023-02-15T06:29:09;4.33;;;1.23;;
70320;SDS011;61127;55.826;37.046;2023-02-15T06:31:34;4.70;;;1.50;;
70320;SDS011;61127;55.826;37.046;2023-02-15T06:34:00;5.32;;;1.10;;
70320;SDS011;61127;55.826;37.046;2023-02-15T06:36:28;3.00;;;1.20;;
70320;SDS011;61127;55.826;37.046;2023-02-15T06:38:54;5.15;;;1.20;;
70320;SDS011;61127;55.826;37.046;2023-02-15T06:41:19;4.18;;;1.17;;
70320;SDS011;61127;55.826;37.046;2023-02-15T06:43:45;5.80;;;1.23;;
70320;SDS011;61127;55.826;37.046;2023-02-15T06:46:12;3.13;;;1.00;;
70320;SDS011;61127;55.826;37.046;2023-02-15T06:48:37;5.22;;;1.48;;
70320;SDS011;61127;55.826;37.046;2023-02-15T06:51:03;9.70;;;1.40;;
70320;SDS011;61127;55.826;37.046;2023-02-15T06:53:28;2.95;;;1.02;;
70320;SDS011;61127;55.826;37.046;2023-02-15T06:56:05;3.43;;;1.20;;
70320;SDS011;61127;55.826;37.046;2023-02-15T06:58:35;2.55;;;1.00;;
70320;SDS011;61127;55.826;37.046;2023-02-15T07:01:00;7.10;;;1.60;;
70320;SDS011;61127;55.826;37.046;2023-02-15T07:03:26;3.00;;;1.17;;
70320;SDS011;61127;55.826;37.046;2023-02-15T07:05:55;4.80;;;1.35;;
70320;SDS011;61127;55.826;37.046;2023-02-15T07:08:21;3.72;;;0.90;;
70320;SDS011;61127;55.826;37.046;2023-02-15T07:10:48;2.60;;;0.90;;
70320;SDS011;61127;55.826;37.046;2023-02-15T07:13:13;5.68;;;1.40;;
70320;SDS011;61127;55.826;37.046;2023-02-15T07:15:40;6.22;;;1.38;;
70320;SDS011;61127;55.826;37.046;2023-02-15T07:18:05;2.33;;;1.10;;
70320;SDS011;61127;55.826;37.046;2023-02-15T07:20:31;2.70;;;0.95;;
70320;SDS011;61127;55.826;37.046;2023-02-15T07:22:58;3.97;;;0.83;;
70320;SDS011;61127;55.826;37.046;2023-02-15T07:25:24;5.07;;;0.95;;
70320;SDS011;61127;55.826;37.046;2023-02-15T07:27:55;4.53;;;0.90;;
70320;SDS011;61127;55.826;37.046;2023-02-15T07:30:21;1.88;;;0.80;;
70320;SDS011;61127;55.826;37.046;2023-02-15T07:32:47;6.37;;;1.10;;
70320;SDS011;61127;55.826;37.046;2023-02-15T07:35:31;2.60;;;0.90;;
70320;SDS011;61127;55.826;37.046;2023-02-15T07:37:57;3.72;;;1.08;;
70320;SDS011;61127;55.826;37.046;2023-02-15T07:40:23;6.77;;;1.27;;
70320;SDS011;61127;55.826;37.046;2023-02-15T07:42:48;5.75;;;1.15;;
70320;SDS011;61127;55.826;37.046;2023-02-15T07:45:17;8.03;;;1.27;;
70320;SDS011;61127;55.826;37.046;2023-02-15T07:47:42;4.47;;;1.10;;
70320;SDS011;61127;55.826;37.046;2023-02-15T07:50:08;6.40;;;0.90;;
70320;SDS011;61127;55.826;37.046;2023-02-15T07:52:33;2.93;;;0.70;;
70320;SDS011;61127;55.826;37.046;2023-02-15T07:54:59;3.53;;;0.90;;
70320;SDS011;61127;55.826;37.046;2023-02-15T07:57:25;3.95;;;0.90;;
70320;SDS011;61127;55.826;37.046;2023-02-15T07:59:50;2.80;;;1.47;;
70320;SDS011;61127;55.826;37.046;2023-02-15T08:02:16;4.33;;;0.90;;
70320;SDS011;61127;55.826;37.046;2023-02-15T08:04:42;4.13;;;0.90;;
70320;SDS011;61127;55.826;37.046;2023-02-15T08:07:08;4.17;;;1.00;;
70320;SDS011;61127;55.826;37.046;2023-02-15T08:09:33;4.35;;;1.00;;
70320;SDS011;61127;55.826;37.046;2023-02-15T08:11:59;3.60;;;1.00;;
70320;SDS011;61127;55.826;37.046;2023-02-15T08:14:26;3.88;;;1.10;;
70320;SDS011;61127;55.826;37.046;2023-02-15T08:16:53;4.03;;;1.00;;
70320;SDS011;61127;55.826;37.046;2023-02-15T08:19:25;5.32;;;1.10;;
70320;SDS011;61127;55.826;37.046;2023-02-15T08:21:58;3.90;;;0.93;;
70320;SDS011;61127;55.826;37.046;2023-02-15T08:24:26;2.63;;;1.00;;
70320;SDS011;61127;55.826;37.046;2023-02-15T08:26:52;4.32;;;1.13;;
70320;SDS011;61127;55.826;37.046;2023-02-15T08:29:19;3.93;;;1.07;;
70320;SDS011;61127;55.826;37.046;2023-02-15T08:31:46;6.40;;;1.10;;
70320;SDS011;61127;55.826;37.046;2023-02-15T08:34:13;5.53;;;1.17;;
70320;SDS011;61127;55.826;37.046;2023-02-15T08:36:39;3.47;;;1.23;;
70320;SDS011;61127;55.826;37.046;2023-02-15T08:39:05;3.53;;;1.27;;
70320;SDS011;61127;55.826;37.046;2023-02-15T08:41:35;6.10;;;1.40;;
70320;SDS011;61127;55.826;37.046;2023-02-15T08:44:02;3.30;;;1.10;;
70320;SDS011;61127;55.826;37.046;2023-02-15T08:46:30;3.73;;;1.20;;
70320;SDS011;61127;55.826;37.046;2023-02-15T08:48:56;6.20;;;1.23;;
70320;SDS011;61127;55.826;37.046;2023-02-15T08:51:23;3.72;;;1.00;;
70320;SDS011;61127;55.826;37.046;2023-02-15T08:53:54;2.72;;;1.00;;
70320;SDS011;61127;55.826;37.046;2023-02-15T08:56:20;3.90;;;1.25;;
70320;SDS011;61127;55.826;37.046;2023-02-15T08:58:46;4.57;;;1.20;;
70320;SDS011;61127;55.826;37.046;2023-02-15T09:04:16;5.97;;;1.40;;
70320;SDS011;61127;55.826;37.046;2023-02-15T09:06:43;3.70;;;1.05;;
70320;SDS011;61127;55.826;37.046;2023-02-15T09:09:09;1.93;;;0.90;;
70320;SDS011;61127;55.826;37.046;2023-02-15T09:11:36;4.70;;;1.10;;
70320;SDS011;61127;55.826;37.046;2023-02-15T09:14:10;6.03;;;1.10;;
70320;SDS011;61127;55.826;37.046;2023-02-15T09:16:41;3.85;;;1.20;;
70320;SDS011;61127;55.826;37.046;2023-02-15T09:19:07;5.00;;;1.42;;
70320;SDS011;61127;55.826;37.046;2023-02-15T09:21:33;4.90;;;0.93;;
70320;SDS011;61127;55.826;37.046;2023-02-15T09:24:01;3.78;;;0.95;;
70320;SDS011;61127;55.826;37.046;2023-02-15T09:26:29;4.70;;;1.10;;
70320;SDS011;61127;55.826;37.046;2023-02-15T09:28:56;6.68;;;1.30;;
70320;SDS011;61127;55.826;37.046;2023-02-15T09:31:26;4.97;;;1.00;;
70320;SDS011;61127;55.826;37.046;2023-02-15T09:33:52;3.75;;;0.90;;
70320;SDS011;61127;55.826;37.046;2023-02-15T09:36:22;2.97;;;1.05;;
70320;SDS011;61127;55.826;37.046;2023-02-15T09:44:28;4.13;;;1.07;;
70320;SDS011;61127;55.826;37.046;2023-02-15T09:49:32;4.82;;;1.45;;
70320;SDS011;61127;55.826;37.046;2023-02-15T09:57:04;4.63;;;1.43;;
70320;SDS011;61127;55.826;37.046;2023-02-15T09:59:58;5.15;;;1.10;;
70320;SDS011;61127;55.826;37.046;2023-02-15T10:05:05;2.47;;;0.70;;
70320;SDS011;61127;55.826;37.046;2023-02-15T10:15:42;3.00;;;0.90;;
70320;SDS011;61127;55.826;37.046;2023-02-15T10:18:24;3.42;;;1.00;;
70320;SDS011;61127;55.826;37.046;2023-02-15T10:21:11;2.47;;;0.90;;
70320;SDS011;61127;55.826;37.046;2023-02-15T10:28:48;4.60;;;0.83;;
70320;SDS011;61127;55.826;37.046;2023-02-15T10:31:34;2.05;;;0.90;;
70320;SDS011;61127;55.826;37.046;2023-02-15T10:36:42;3.40;;;0.85;;
70320;SDS011;61127;55.826;37.046;2023-02-15T10:39:20;3.65;;;1.10;;
70320;SDS011;61127;55.826;37.046;2023-02-15T10:44:37;4.38;;;0.80;;
70320;SDS011;61127;55.826;37.046;2023-02-15T10:47:13;3.22;;;0.90;;
70320;SDS011;61127;55.826;37.046;2023-02-15T10:52:29;3.22;;;0.82;;
70320;SDS011;61127;55.826;37.046;2023-02-15T11:00:17;4.32;;;1.02;;
70320;SDS011;61127;55.826;37.046;2023-02-15T11:07:41;2.53;;;0.80;;
70320;SDS011;61127;55.826;37.046;2023-02-15T11:12:37;3.65;;;0.70;;
70320;SDS011;61127;55.826;37.046;2023-02-15T11:15:11;2.53;;;0.77;;
70320;SDS011;61127;55.826;37.046;2023-02-15T11:17:41;3.97;;;0.90;;
70320;SDS011;61127;55.826;37.046;2023-02-15T11:22:52;3.08;;;0.70;;
70320;SDS011;61127;55.826;37.046;2023-02-15T11:25:22;1.85;;;0.75;;
70320;SDS011;61127;55.826;37.046;2023-02-15T11:27:49;2.15;;;0.80;;
70320;SDS011;61127;55.826;37.046;2023-02-15T11:30:21;3.50;;;0.70;;
70320;SDS011;61127;55.826;37.046;2023-02-15T11:32:48;2.33;;;0.73;;
70320;SDS011;61127;55.826;37.046;2023-02-15T11:35:20;1.63;;;0.90;;
70320;SDS011;61127;55.826;37.046;2023-02-15T11:37:48;4.57;;;1.02;;
70320;SDS011;61127;55.826;37.046;2023-02-15T11:42:58;1.88;;;0.80;;
70320;SDS011;61127;55.826;37.046;2023-02-15T11:45:31;2.38;;;0.70;;
70320;SDS011;61127;55.826;37.046;2023-02-15T11:47:57;3.50;;;0.93;;
70320;SDS011;61127;55.826;37.046;2023-02-15T11:50:24;3.78;;;0.80;;
70320;SDS011;61127;55.826;37.046;2023-02-15T11:52:51;1.63;;;0.67;;
70320;SDS011;61127;55.826;37.046;2023-02-15T11:55:18;3.58;;;0.90;;
70320;SDS011;61127;55.826;37.046;2023-02-15T11:57:47;5.93;;;1.40;;
70320;SDS011;61127;55.826;37.046;2023-02-15T12:00:36;3.88;;;1.08;;
70320;SDS011;61127;55.826;37.046;2023-02-15T12:03:37;3.80;;;1.20;;
70320;SDS011;61127;55.826;37.046;2023-02-15T12:05:56;2.43;;;0.87;;
70320;SDS011;61127;55.826;37.046;2023-02-15T12:08:22;2.60;;;0.90;;
70320;SDS011;61127;55.826;37.046;2023-02-15T12:10:58;3.50;;;1.00;;
70320;SDS011;61127;55.826;37.046;2023-02-15T12:13:26;3.33;;;0.80;;
70320;SDS011;61127;55.826;37.046;2023-02-15T12:21:05;3.45;;;0.88;;
70320;SDS011;61127;55.826;37.046;2023-02-15T12:23:32;4.57;;;1.77;;
70320;SDS011;61127;55.826;37.046;2023-02-15T12:25:58;7.70;;;2.17;;
70320;SDS011;61127;55.826;37.046;2023-02-15T12:30:55;3.45;;;1.80;;
70320;SDS011;61127;55.826;37.046;2023-02-15T12:33:32;2.65;;;1.00;;
70320;SDS011;61127;55.826;37.046;2023-02-15T12:36:03;3.45;;;1.00;;
70320;SDS011;61127;55.826;37.046;2023-02-15T12:38:33;2.67;;;1.20;;
70320;SDS011;61127;55.826;37.046;2023-02-15T12:41:03;4.00;;;1.00;;
70320;SDS011;61127;55.826;37.046;2023-02-15T12:43:34;1.70;;;0.77;;
70320;SDS011;61127;55.826;37.046;2023-02-15T12:48:43;2.42;;;0.52;;
70320;SDS011;61127;55.826;37.046;2023-02-15T12:51:09;1.97;;;0.60;;
70320;SDS011;61127;55.826;37.046;2023-02-15T12:53:38;2.10;;;1.00;;
70320;SDS011;61127;55.826;37.046;2023-02-15T12:56:06;2.00;;;0.70;;
70320;SDS011;61127;55.826;37.046;2023-02-15T12:58:33;3.03;;;0.70;;
70320;SDS011;61127;55.826;37.046;2023-02-15T13:03:34;5.13;;;1.67;;
70320;SDS011;61127;55.826;37.046;2023-02-15T13:06:02;2.45;;;0.90;;
70320;SDS011;61127;55.826;37.046;2023-02-15T13:08:37;3.13;;;0.95;;
70320;SDS011;61127;55.826;37.046;2023-02-15T13:11:06;1.57;;;0.90;;
70320;SDS011;61127;55.826;37.046;2023-02-15T13:13:35;2.75;;;1.25;;
70320;SDS011;61127;55.826;37.046;2023-02-15T13:16:11;3.17;;;1.20;;
70320;SDS011;61127;55.826;37.046;2023-02-15T13:18:39;4.22;;;0.90;;
70320;SDS011;61127;55.826;37.046;2023-02-15T13:21:12;4.45;;;1.02;;
70320;SDS011;61127;55.826;37.046;2023-02-15T13:23:39;2.53;;;1.00;;
70320;SDS011;61127;55.826;37.046;2023-02-15T13:26:11;2.63;;;0.85;;
70320;SDS011;61127;55.826;37.046;2023-02-15T13:29:14;1.77;;;0.70;;
70320;SDS011;61127;55.826;37.046;2023-02-15T13:31:30;3.13;;;1.02;;
70320;SDS011;61127;55.826;37.046;2023-02-15T13:34:00;4.20;;;0.85;;
70320;SDS011;61127;55.826;37.046;2023-02-15T13:36:34;4.20;;;1.13;;
70320;SDS011;61127;55.826;37.046;2023-02-15T13:47:16;3.20;;;0.93;;
70320;SDS011;61127;55.826;37.046;2023-02-15T13:52:20;2.63;;;1.10;;
70320;SDS011;61127;55.826;37.046;2023-02-15T13:57:36;3.53;;;1.30;;
70320;SDS011;61127;55.826;37.046;2023-02-15T14:05:21;2.20;;;1.00;;
70320;SDS011;61127;55.826;37.046;2023-02-15T14:10:34;3.15;;;0.90;;
70320;SDS011;61127;55.826;37.046;2023-02-15T14:15:44;2.63;;;0.90;;
70320;SDS011;61127;55.826;37.046;2023-02-15T14:18:15;3.45;;;0.90;;
70320;SDS011;61127;55.826;37.046;2023-02-15T14:28:12;5.50;;;0.85;;
70320;SDS011;61127;55.826;37.046;2023-02-15T14:30:41;3.40;;;0.80;;
70320;SDS011;61127;55.826;37.046;2023-02-15T14:35:35;2.92;;;1.10;;
70320;SDS011;61127;55.826;37.046;2023-02-15T14:45:49;4.65;;;1.10;;
70320;SDS011;61127;55.826;37.046;2023-02-15T14:48:16;5.07;;;1.10;;
70320;SDS011;61127;55.826;37.046;2023-02-15T14:50:59;2.07;;;0.80;;
70320;SDS011;61127;55.826;37.046;2023-02-15T14:53:38;2.88;;;1.00;;
70320;SDS011;61127;55.826;37.046;2023-02-15T14:56:18;3.30;;;1.10;;
70320;SDS011;61127;55.826;37.046;2023-02-15T15:01:40;4.60;;;1.00;;
70320;SDS011;61127;55.826;37.046;2023-02-15T15:04:11;5.35;;;0.95;;
70320;SDS011;61127;55.826;37.046;2023-02-15T15:06:42;2.50;;;0.98;;
70320;SDS011;61127;55.826;37.046;2023-02-15T15:09:27;1.77;;;0.90;;
70320;SDS011;61127;55.826;37.046;2023-02-15T15:11:54;2.83;;;1.00;;
70320;SDS011;61127;55.826;37.046;2023-02-15T15:22:31;2.60;;;0.90;;
70320;SDS011;61127;55.826;37.046;2023-02-15T15:25:41;3.42;;;1.00;;
70320;SDS011;61127;55.826;37.046;2023-02-15T15:27:50;4.10;;;1.27;;
70320;SDS011;61127;55.826;37.046;2023-02-15T15:32:56;2.00;;;0.97;;
70320;SDS011;61127;55.826;37.046;2023-02-15T15:38:36;2.63;;;0.80;;
70320;SDS011;61127;55.826;37.046;2023-02-15T15:48:43;4.53;;;0.85;;
70320;SDS011;61127;55.826;37.046;2023-02-15T15:51:19;3.87;;;1.00;;
70320;SDS011;61127;55.826;37.046;2023-02-15T15:53:47;2.10;;;0.82;;
70320;SDS011;61127;55.826;37.046;2023-02-15T15:56:18;2.90;;;1.08;;
70320;SDS011;61127;55.826;37.046;2023-02-15T15:58:45;3.60;;;1.05;;
70320;SDS011;61127;55.826;37.046;2023-02-15T16:01:11;3.55;;;1.20;;
70320;SDS011;61127;55.826;37.046;2023-02-15T16:03:41;1.70;;;0.73;;
70320;SDS011;61127;55.826;37.046;2023-02-15T16:06:25;3.00;;;1.00;;
70320;SDS011;61127;55.826;37.046;2023-02-15T16:08:51;2.05;;;0.82;;
70320;SDS011;61127;55.826;37.046;2023-02-15T16:11:19;1.97;;;0.70;;
70320;SDS011;61127;55.826;37.046;2023-02-15T16:13:46;1.83;;;0.98;;
70320;SDS011;61127;55.826;37.046;2023-02-15T16:16:13;2.90;;;1.08;;
70320;SDS011;61127;55.826;37.046;2023-02-15T16:18:44;2.85;;;1.20;;
70320;SDS011;61127;55.826;37.046;2023-02-15T16:21:17;5.73;;;0.90;;
70320;SDS011;61127;55.826;37.046;2023-02-15T16:26:42;1.73;;;0.70;;
70320;SDS011;61127;55.826;37.046;2023-02-15T16:29:15;3.10;;;0.90;;
70320;SDS011;61127;55.826;37.046;2023-02-15T16:31:41;1.90;;;0.85;;
70320;SDS011;61127;55.826;37.046;2023-02-15T16:34:09;3.70;;;0.97;;
70320;SDS011;61127;55.826;37.046;2023-02-15T16:36:39;2.08;;;0.70;;
70320;SDS011;61127;55.826;37.046;2023-02-15T16:39:09;2.50;;;0.90;;
70320;SDS011;61127;55.826;37.046;2023-02-15T16:41:35;2.65;;;0.90;;
70320;SDS011;61127;55.826;37.046;2023-02-15T16:44:04;2.78;;;0.90;;
70320;SDS011;61127;55.826;37.046;2023-02-15T16:46:31;1.88;;;0.90;;
70320;SDS011;61127;55.826;37.046;2023-02-15T16:49:05;2.00;;;0.87;;
70320;SDS011;61127;55.826;37.046;2023-02-15T16:51:33;1.77;;;0.88;;
70320;SDS011;61127;55.826;37.046;2023-02-15T16:54:04;2.35;;;0.95;;
70320;SDS011;61127;55.826;37.046;2023-02-15T16:56:32;2.15;;;0.60;;
70320;SDS011;61127;55.826;37.046;2023-02-15T16:58:58;3.85;;;1.10;;
70320;SDS011;61127;55.826;37.046;2023-02-15T17:01:25;1.90;;;0.80;;
70320;SDS011;61127;55.826;37.046;2023-02-15T17:03:52;5.25;;;1.00;;
70320;SDS011;61127;55.826;37.046;2023-02-15T17:06:35;2.38;;;1.00;;
70320;SDS011;61127;55.826;37.046;2023-02-15T17:09:13;1.90;;;1.00;;
70320;SDS011;61127;55.826;37.046;2023-02-15T17:11:40;2.03;;;0.70;;
70320;SDS011;61127;55.826;37.046;2023-02-15T17:21:50;2.40;;;0.80;;
70320;SDS011;61127;55.826;37.046;2023-02-15T17:24:22;3.13;;;0.80;;
70320;SDS011;61127;55.826;37.046;2023-02-15T17:26:50;3.40;;;0.90;;
70320;SDS011;61127;55.826;37.046;2023-02-15T17:31:44;2.33;;;0.70;;
70320;SDS011;61127;55.826;37.046;2023-02-15T17:34:40;1.35;;;0.60;;
70320;SDS011;61127;55.826;37.046;2023-02-15T17:36:57;3.75;;;0.70;;
70320;SDS011;61127;55.826;37.046;2023-02-15T17:39:24;1.47;;;0.80;;
70320;SDS011;61127;55.826;37.046;2023-02-15T17:41:51;2.35;;;0.80;;
70320;SDS011;61127;55.826;37.046;2023-02-15T17:44:18;1.52;;;0.80;;
70320;SDS011;61127;55.826;37.046;2023-02-15T17:46:43;1.90;;;0.80;;
70320;SDS011;61127;55.826;37.046;2023-02-15T17:49:13;1.23;;;0.90;;
70320;SDS011;61127;55.826;37.046;2023-02-15T17:51:41;3.42;;;0.73;;
70320;SDS011;61127;55.826;37.046;2023-02-15T17:54:07;1.43;;;0.80;;
70320;SDS011;61127;55.826;37.046;2023-02-15T17:56:51;2.13;;;0.90;;